Terminal Aerodrome Forecast
Issued by NWS

Home | Current Version | Previous Version | Graphics & Text | Print | Product List | Glossary On
Versions: 1 2 3 4 5 6 7 8 9 10 11 12 13 14 15 16 17 18
000
FTUS43 KMPX 240500
TAFAXN
TAF
KAXN 240525Z 2406/2506 18008KT P6SM SCT250
     FM241700 23009KT P6SM SCT250
     FM242000 26010KT P6SM BKN250
     FM250200 29010KT P6SM BKN120=

USA.gov is the U.S. government's official web portal to all federal, state and local government web resources and services.